Time;durP1;ratioP1;P1;durP2;ratioP2;P2;SDS_P1;SDS_P2;PMS_P1;PMS_P2;Temp;Humidity;BMP_temperature;BMP_pressure;BME280_temperature;BME280_humidity;BME280_pressure;Samples;Min_cycle;Max_cycle;Signal;HPM_P1;HPM_P2
2021/10/17 00:00:29;;;;;;;12.80;7.50;;;8.10;99.80;;;;;;5034939;28;21016;-86
2021/10/17 00:02:58;;;;;;;11.13;7.30;;;8.10;99.80;;;;;;5057209;28;21032;-87
2021/10/17 00:05:28;;;;;;;9.10;7.53;;;8.10;99.80;;;;;;5047455;28;20827;-87
2021/10/17 00:07:57;;;;;;;14.13;9.37;;;8.10;99.80;;;;;;5050402;28;20483;-87
2021/10/17 00:10:28;;;;;;;12.97;9.30;;;8.10;99.80;;;;;;5045892;28;20470;-87
2021/10/17 00:12:58;;;;;;;13.43;9.60;;;8.10;99.80;;;;;;5049490;28;20467;-87
2021/10/17 00:15:30;;;;;;;12.50;8.97;;;8.10;99.80;;;;;;5029209;28;20464;-87
2021/10/17 00:18:00;;;;;;;10.87;7.77;;;8.10;99.80;;;;;;5066233;28;20475;-87
2021/10/17 00:20:29;;;;;;;12.13;8.27;;;8.10;99.80;;;;;;5046672;28;20477;-87
2021/10/17 00:22:57;;;;;;;12.10;7.30;;;8.00;99.80;;;;;;5049274;28;20561;-87
2021/10/17 00:25:27;;;;;;;23.17;10.10;;;8.00;99.80;;;;;;5034229;28;20457;-87
2021/10/17 00:27:55;;;;;;;17.37;8.60;;;8.00;99.80;;;;;;5038088;28;20489;-87
2021/10/17 00:30:23;;;;;;;11.40;7.97;;;8.10;99.80;;;;;;5055877;28;20466;-87
2021/10/17 00:32:52;;;;;;;14.77;7.20;;;8.00;99.80;;;;;;5041862;28;20467;-87
2021/10/17 00:35:20;;;;;;;12.90;8.47;;;8.00;99.80;;;;;;5029839;28;21227;-87
2021/10/17 00:37:49;;;;;;;12.40;8.30;;;8.00;99.80;;;;;;5055139;28;20865;-87
2021/10/17 00:40:20;;;;;;;10.83;7.67;;;8.00;99.80;;;;;;5039445;28;20988;-87
2021/10/17 00:42:50;;;;;;;12.43;7.63;;;8.00;99.80;;;;;;5054178;28;20479;-87
2021/10/17 00:45:20;;;;;;;11.77;7.27;;;8.00;99.80;;;;;;5048382;28;20564;-87
2021/10/17 00:47:48;;;;;;;10.63;7.80;;;8.00;99.80;;;;;;5028206;28;20469;-87
2021/10/17 00:50:16;;;;;;;11.30;7.50;;;7.90;99.80;;;;;;5052294;28;20459;-87
2021/10/17 00:52:45;;;;;;;13.73;8.20;;;7.90;99.80;;;;;;5053824;28;20456;-87
2021/10/17 00:55:15;;;;;;;10.57;7.83;;;7.80;99.80;;;;;;5048943;28;20993;-87
2021/10/17 00:57:44;;;;;;;13.73;7.30;;;7.90;99.80;;;;;;5039120;28;20479;-87
2021/10/17 01:00:16;;;;;;;14.07;6.60;;;7.90;99.80;;;;;;5048545;28;20461;-87
2021/10/17 01:02:44;;;;;;;14.73;7.50;;;7.90;99.80;;;;;;5020210;28;20505;-87
2021/10/17 01:05:15;;;;;;;12.07;7.20;;;7.90;99.80;;;;;;5049430;28;20897;-87
2021/10/17 01:07:44;;;;;;;8.37;7.40;;;7.90;99.80;;;;;;5036384;28;20544;-87
2021/10/17 01:10:13;;;;;;;14.27;7.67;;;7.90;99.80;;;;;;5040884;28;20466;-87
2021/10/17 01:12:41;;;;;;;10.60;7.93;;;7.90;99.80;;;;;;5026154;28;20451;-87
2021/10/17 01:15:10;;;;;;;19.40;7.83;;;7.90;99.80;;;;;;5044695;28;20825;-87
2021/10/17 01:17:40;;;;;;;9.13;6.53;;;7.80;99.80;;;;;;5036527;28;20487;-87
2021/10/17 01:20:11;;;;;;;10.50;7.03;;;7.80;99.80;;;;;;5046009;28;20465;-87
2021/10/17 01:22:41;;;;;;;11.37;6.23;;;7.90;99.80;;;;;;5051038;28;20468;-87
2021/10/17 01:25:11;;;;;;;10.20;6.10;;;7.90;99.80;;;;;;5052921;28;20949;-87
2021/10/17 01:27:39;;;;;;;9.70;6.20;;;7.90;99.80;;;;;;5049875;28;20476;-87
2021/10/17 01:30:09;;;;;;;10.13;5.97;;;7.90;99.80;;;;;;5044387;28;20487;-87
2021/10/17 01:32:37;;;;;;;8.87;5.87;;;8.00;99.80;;;;;;5054585;28;20533;-87
2021/10/17 01:35:06;;;;;;;9.10;4.80;;;8.00;99.80;;;;;;5062957;28;20473;-87
2021/10/17 01:37:35;;;;;;;7.07;5.37;;;8.10;99.80;;;;;;5055942;28;20865;-87
2021/10/17 01:40:04;;;;;;;10.47;5.30;;;8.10;99.80;;;;;;5068664;28;21334;-87
2021/10/17 01:42:32;;;;;;;9.10;4.93;;;8.20;99.80;;;;;;5054912;28;20470;-87
2021/10/17 01:45:00;;;;;;;11.43;4.53;;;8.20;99.80;;;;;;5051146;28;20894;-87
2021/10/17 01:47:28;;;;;;;8.43;5.20;;;8.20;99.80;;;;;;5059591;28;20473;-87
2021/10/17 01:49:57;;;;;;;10.30;5.03;;;8.20;99.80;;;;;;5060015;28;21237;-86
2021/10/17 01:52:25;;;;;;;9.73;6.57;;;8.20;99.80;;;;;;5064823;28;20494;-87
2021/10/17 01:54:54;;;;;;;15.53;7.20;;;8.20;99.80;;;;;;5058954;28;20471;-87
2021/10/17 01:57:22;;;;;;;10.77;6.40;;;8.10;99.80;;;;;;5066927;28;20847;-87
2021/10/17 01:59:50;;;;;;;13.57;6.80;;;8.10;99.80;;;;;;5059097;28;20482;-87
2021/10/17 02:02:18;;;;;;;14.77;7.17;;;8.10;99.80;;;;;;5071309;28;20488;-87
2021/10/17 02:04:46;;;;;;;12.97;6.70;;;8.10;99.80;;;;;;5044302;28;20474;-87
2021/10/17 02:07:14;;;;;;;13.00;7.30;;;8.20;99.80;;;;;;5056988;28;20846;-87
2021/10/17 02:09:42;;;;;;;14.53;6.80;;;8.20;99.80;;;;;;5052446;28;20459;-87
2021/10/17 02:12:12;;;;;;;12.00;7.13;;;8.20;99.80;;;;;;5056355;28;20479;-86
2021/10/17 02:14:40;;;;;;;9.80;6.20;;;8.20;99.80;;;;;;5043079;28;20481;-87
2021/10/17 02:17:09;;;;;;;12.53;7.00;;;8.30;99.80;;;;;;5055210;28;20905;-87
2021/10/17 02:19:37;;;;;;;10.03;5.93;;;8.30;99.80;;;;;;5043582;28;20860;-87
2021/10/17 02:22:05;;;;;;;11.87;6.53;;;8.30;99.80;;;;;;5052204;28;20466;-87
2021/10/17 02:24:33;;;;;;;12.17;6.07;;;8.30;99.80;;;;;;5046200;28;21074;-87
2021/10/17 02:27:01;;;;;;;10.30;6.20;;;8.30;99.80;;;;;;5052979;28;20460;-87
2021/10/17 02:29:30;;;;;;;12.47;7.87;;;8.40;99.80;;;;;;5041276;28;20471;-86
2021/10/17 02:31:59;;;;;;;8.73;5.87;;;8.30;99.80;;;;;;5039259;28;20466;-87
2021/10/17 02:34:27;;;;;;;10.87;6.33;;;8.30;99.80;;;;;;5054207;28;20471;-87
2021/10/17 02:36:55;;;;;;;7.97;6.37;;;8.30;99.80;;;;;;5059677;28;21045;-87
2021/10/17 02:39:23;;;;;;;11.43;6.80;;;8.30;99.80;;;;;;5050591;28;20505;-86
2021/10/17 02:41:51;;;;;;;8.47;5.97;;;8.30;99.80;;;;;;5056655;28;20480;-87
2021/10/17 02:44:19;;;;;;;10.17;6.33;;;8.20;99.80;;;;;;5045682;28;20601;-87
2021/10/17 02:46:48;;;;;;;10.70;6.43;;;8.20;99.80;;;;;;5040852;28;20468;-87
2021/10/17 02:49:16;;;;;;;16.97;7.30;;;8.20;99.80;;;;;;5054386;28;20475;-87
2021/10/17 02:51:44;;;;;;;8.80;6.60;;;8.20;99.80;;;;;;5061484;28;20484;-87
2021/10/17 02:54:13;;;;;;;7.73;6.30;;;8.20;99.80;;;;;;5052544;28;20471;-87
2021/10/17 02:56:41;;;;;;;18.40;7.47;;;8.20;99.80;;;;;;5050781;28;20585;-87
2021/10/17 02:59:09;;;;;;;11.57;7.83;;;8.20;99.80;;;;;;5038268;28;20842;-87
2021/10/17 03:01:37;;;;;;;14.80;6.30;;;8.20;99.80;;;;;;5027524;28;21023;-87
2021/10/17 03:04:06;;;;;;;12.10;6.80;;;8.20;99.80;;;;;;5040838;28;20902;-87
2021/10/17 03:06:34;;;;;;;10.20;6.43;;;8.20;99.80;;;;;;5050502;28;20464;-87
2021/10/17 03:09:02;;;;;;;8.80;6.83;;;8.20;99.80;;;;;;5048385;28;20482;-87
2021/10/17 03:11:30;;;;;;;10.43;6.77;;;8.10;99.80;;;;;;5042966;28;20472;-87
2021/10/17 03:13:58;;;;;;;10.10;6.87;;;8.10;99.80;;;;;;5033678;28;20503;-87
2021/10/17 03:16:26;;;;;;;17.70;8.63;;;8.10;99.80;;;;;;5047661;28;20472;-87
2021/10/17 03:18:59;;;;;;;15.03;7.53;;;8.00;99.80;;;;;;5051355;28;20554;-87
2021/10/17 03:21:34;;;;;;;9.50;6.73;;;8.00;99.80;;;;;;5062531;28;20836;-87
2021/10/17 03:24:04;;;;;;;11.50;6.77;;;8.00;99.80;;;;;;5064130;28;20847;-87
2021/10/17 03:26:32;;;;;;;10.00;6.50;;;8.00;99.80;;;;;;5056480;28;20462;-87
2021/10/17 03:29:00;;;;;;;9.23;6.33;;;8.00;99.80;;;;;;5049621;28;20847;-87
2021/10/17 03:31:28;;;;;;;11.33;6.90;;;8.00;99.80;;;;;;5052328;28;20481;-87
2021/10/17 03:33:56;;;;;;;11.00;6.63;;;7.90;99.80;;;;;;5042468;28;20485;-87
2021/10/17 03:36:24;;;;;;;12.53;6.87;;;7.90;99.80;;;;;;5048324;28;20470;-87
2021/10/17 03:38:53;;;;;;;9.53;6.67;;;7.90;99.80;;;;;;5054930;28;20479;-87
2021/10/17 03:41:21;;;;;;;16.20;6.77;;;7.90;99.80;;;;;;5058799;28;20476;-87
2021/10/17 03:43:49;;;;;;;12.17;6.40;;;7.90;99.80;;;;;;5050546;28;20472;-87
2021/10/17 03:46:19;;;;;;;9.10;5.90;;;7.90;99.80;;;;;;5045263;28;20479;-87
2021/10/17 03:48:48;;;;;;;15.67;6.27;;;7.90;99.80;;;;;;5042087;28;20996;-87
2021/10/17 03:51:16;;;;;;;8.33;6.00;;;7.90;99.80;;;;;;5061329;28;20462;-87
2021/10/17 03:53:44;;;;;;;12.97;6.03;;;8.00;99.80;;;;;;5044553;28;20546;-88
2021/10/17 03:56:13;;;;;;;10.20;5.50;;;8.00;99.80;;;;;;5048645;28;20466;-87
2021/10/17 03:58:41;;;;;;;9.67;6.00;;;8.10;99.80;;;;;;5058472;28;20470;-87
2021/10/17 04:01:09;;;;;;;11.33;5.93;;;8.10;99.80;;;;;;5048452;28;20960;-87
2021/10/17 04:03:37;;;;;;;7.70;5.20;;;8.10;99.80;;;;;;5038315;28;20478;-87
2021/10/17 04:06:08;;;;;;;7.07;5.60;;;8.10;99.80;;;;;;5058811;28;20494;-87
2021/10/17 04:08:36;;;;;;;17.33;5.90;;;8.10;99.80;;;;;;5043578;28;20557;-87
2021/10/17 04:11:04;;;;;;;6.43;4.83;;;8.20;99.80;;;;;;5041646;28;20474;-87
2021/10/17 04:13:33;;;;;;;24.47;5.97;;;8.20;99.80;;;;;;5043987;28;22344;-87
2021/10/17 04:16:01;;;;;;;7.80;5.40;;;8.20;99.80;;;;;;5040936;28;20470;-87
2021/10/17 04:18:29;;;;;;;10.07;5.47;;;8.20;99.80;;;;;;5047168;28;20483;-87
2021/10/17 04:20:57;;;;;;;8.30;5.57;;;8.20;99.80;;;;;;5053066;28;20478;-87
2021/10/17 04:23:26;;;;;;;6.17;5.23;;;8.20;99.80;;;;;;5052497;28;20504;-87
2021/10/17 04:25:54;;;;;;;8.90;5.53;;;8.30;99.80;;;;;;5060801;28;20479;-87
2021/10/17 04:28:22;;;;;;;7.23;5.30;;;8.30;99.80;;;;;;5062761;28;20968;-87
2021/10/17 04:30:51;;;;;;;10.43;6.43;;;8.30;99.80;;;;;;5040093;28;20459;-87
2021/10/17 04:33:19;;;;;;;13.93;6.70;;;8.30;99.80;;;;;;5043094;28;20471;-87
2021/10/17 04:35:48;;;;;;;10.27;6.47;;;8.30;99.80;;;;;;5051820;28;20470;-87
2021/10/17 04:38:16;;;;;;;15.83;6.00;;;8.30;99.80;;;;;;5049071;28;20806;-87
2021/10/17 04:40:45;;;;;;;12.07;5.83;;;8.20;99.80;;;;;;5053452;28;20563;-87
2021/10/17 04:43:13;;;;;;;13.53;6.60;;;8.20;99.80;;;;;;5034258;28;20539;-87
2021/10/17 04:45:42;;;;;;;13.77;5.83;;;8.20;99.80;;;;;;5047922;28;20475;-87
2021/10/17 04:48:12;;;;;;;12.37;7.03;;;8.20;99.80;;;;;;5030186;28;20475;-87
2021/10/17 04:50:40;;;;;;;10.27;6.60;;;8.20;99.80;;;;;;5052961;28;20490;-87
2021/10/17 04:53:09;;;;;;;14.17;6.87;;;8.20;99.80;;;;;;5039568;28;20481;-87
2021/10/17 04:55:37;;;;;;;12.10;7.30;;;8.20;99.80;;;;;;5044345;28;20491;-87
2021/10/17 04:58:06;;;;;;;16.13;7.40;;;8.20;99.80;;;;;;5038968;28;20901;-87
2021/10/17 05:00:34;;;;;;;10.67;6.40;;;8.20;99.80;;;;;;5052250;28;20478;-86
2021/10/17 05:03:02;;;;;;;15.50;6.70;;;8.20;99.80;;;;;;5050461;28;20576;-87
2021/10/17 05:05:32;;;;;;;15.23;7.20;;;8.20;99.80;;;;;;5048664;28;21015;-87
2021/10/17 05:08:01;;;;;;;12.90;7.33;;;8.20;99.80;;;;;;5061066;28;20475;-87
2021/10/17 05:10:28;;;;;;;10.20;7.00;;;8.20;99.80;;;;;;5060869;28;21393;-87
2021/10/17 05:12:56;;;;;;;13.97;7.07;;;8.20;99.80;;;;;;5049966;28;20546;-86
2021/10/17 05:15:24;;;;;;;14.13;6.60;;;8.30;99.80;;;;;;5050044;28;20477;-87
2021/10/17 05:17:52;;;;;;;11.13;6.70;;;8.30;99.80;;;;;;5046754;28;20502;-87
2021/10/17 05:20:20;;;;;;;16.63;6.93;;;8.30;99.80;;;;;;5045669;28;20483;-87
2021/10/17 05:22:50;;;;;;;10.40;6.77;;;8.30;99.80;;;;;;5031617;28;21020;-87
2021/10/17 05:25:18;;;;;;;14.93;6.63;;;8.30;99.80;;;;;;5027060;28;20465;-87
2021/10/17 05:27:46;;;;;;;10.70;6.20;;;8.30;99.80;;;;;;5051907;28;20465;-87
2021/10/17 05:30:14;;;;;;;13.80;7.33;;;8.20;99.80;;;;;;5046255;28;20471;-87
2021/10/17 05:32:41;;;;;;;17.20;6.03;;;8.30;99.80;;;;;;5031344;28;21044;-84
2021/10/17 05:35:09;;;;;;;7.17;6.20;;;8.20;99.80;;;;;;5068584;28;20596;-83
2021/10/17 05:37:37;;;;;;;9.67;6.50;;;8.20;99.80;;;;;;5064611;28;20436;-84
2021/10/17 05:40:08;;;;;;;12.30;7.07;;;8.20;99.80;;;;;;5034242;28;20480;-83
2021/10/17 05:42:36;;;;;;;15.33;6.70;;;8.20;99.80;;;;;;5049793;28;20487;-83
2021/10/17 05:45:04;;;;;;;11.43;6.67;;;8.20;99.80;;;;;;5056593;28;20455;-84
2021/10/17 05:47:33;;;;;;;8.57;5.87;;;8.20;99.80;;;;;;5052353;28;20481;-83
2021/10/17 05:50:01;;;;;;;11.93;6.83;;;8.20;99.80;;;;;;5062349;28;20479;-84
2021/10/17 05:52:29;;;;;;;8.63;6.30;;;8.20;99.80;;;;;;5057125;28;20469;-83
2021/10/17 05:54:57;;;;;;;13.40;7.10;;;8.20;99.80;;;;;;5047741;28;20481;-84
2021/10/17 05:57:26;;;;;;;12.40;6.67;;;8.20;99.80;;;;;;5044504;28;20827;-84
2021/10/17 05:59:54;;;;;;;9.77;6.33;;;8.20;99.80;;;;;;5038367;28;20463;-83
2021/10/17 06:02:22;;;;;;;13.20;7.33;;;8.20;99.80;;;;;;5036756;28;20548;-84
2021/10/17 06:04:50;;;;;;;11.73;7.17;;;8.20;99.80;;;;;;5057514;28;20479;-83
2021/10/17 06:07:19;;;;;;;17.37;7.87;;;8.20;99.80;;;;;;5060521;28;20462;-84
2021/10/17 06:09:47;;;;;;;10.43;6.30;;;8.20;99.80;;;;;;5039725;28;20471;-84
2021/10/17 06:12:15;;;;;;;11.83;5.93;;;8.20;99.80;;;;;;5045757;28;20485;-83
2021/10/17 06:14:44;;;;;;;11.53;6.20;;;8.20;99.80;;;;;;5054785;28;20479;-84
2021/10/17 06:17:17;;;;;;;12.33;7.00;;;8.20;99.80;;;;;;5053352;28;20596;-83
2021/10/17 06:19:45;;;;;;;11.00;6.03;;;8.20;99.80;;;;;;5061283;28;20481;-84
2021/10/17 06:22:12;;;;;;;10.35;5.97;;;8.20;99.80;;;;;;5043600;28;20463;-83
2021/10/17 06:24:40;;;;;;;11.57;6.23;;;8.20;99.80;;;;;;5051162;28;20228;-83
2021/10/17 06:27:08;;;;;;;10.73;5.97;;;8.20;99.80;;;;;;5051594;28;20467;-84
2021/10/17 06:29:36;;;;;;;11.00;6.17;;;8.20;99.80;;;;;;5030801;28;21258;-84
2021/10/17 06:32:07;;;;;;;11.53;6.87;;;8.20;99.80;;;;;;5044251;28;20547;-84
2021/10/17 06:34:35;;;;;;;13.13;6.10;;;8.20;99.80;;;;;;5065912;28;21007;-83
2021/10/17 06:37:03;;;;;;;9.47;6.40;;;8.20;99.80;;;;;;5058169;28;20477;-84
2021/10/17 06:39:31;;;;;;;9.13;6.50;;;8.30;99.80;;;;;;5062967;28;20840;-83
2021/10/17 06:41:59;;;;;;;14.00;6.97;;;8.30;99.80;;;;;;5045647;28;20486;-84
2021/10/17 06:44:27;;;;;;;15.30;6.97;;;8.30;99.80;;;;;;5038834;28;20575;-84
2021/10/17 06:46:55;;;;;;;17.73;6.87;;;8.30;99.80;;;;;;5042084;28;20490;-84
2021/10/17 06:49:25;;;;;;;6.87;6.17;;;8.30;99.80;;;;;;5045522;28;20464;-83
2021/10/17 06:51:52;;;;;;;8.90;6.60;;;8.30;99.80;;;;;;5038501;28;20842;-83
2021/10/17 06:54:20;;;;;;;12.90;7.07;;;8.40;99.80;;;;;;5034561;28;20491;-83
2021/10/17 06:56:49;;;;;;;11.33;6.80;;;8.50;99.80;;;;;;5043189;28;20814;-83
2021/10/17 06:59:16;;;;;;;12.37;5.80;;;8.60;99.80;;;;;;5051164;28;20482;-83
2021/10/17 07:01:45;;;;;;;10.93;5.60;;;8.70;99.80;;;;;;5042996;28;20470;-83
2021/10/17 07:04:13;;;;;;;8.73;6.17;;;8.80;99.80;;;;;;5054661;28;21463;-84
2021/10/17 07:06:42;;;;;;;14.03;6.73;;;8.80;99.80;;;;;;5055270;28;20481;-84
2021/10/17 07:09:10;;;;;;;9.77;5.37;;;8.80;99.80;;;;;;5050588;28;20540;-83
2021/10/17 07:11:38;;;;;;;9.67;5.63;;;8.80;99.80;;;;;;5053230;28;20464;-84
2021/10/17 07:14:07;;;;;;;11.40;6.80;;;8.90;99.80;;;;;;5041443;28;20504;-83
2021/10/17 07:16:34;;;;;;;15.10;5.70;;;9.00;99.80;;;;;;5042288;28;20823;-83
2021/10/17 07:19:03;;;;;;;6.73;5.17;;;9.00;99.80;;;;;;5050530;28;20558;-83
2021/10/17 07:21:31;;;;;;;13.07;6.50;;;9.00;99.80;;;;;;5065132;28;20479;-83
2021/10/17 07:24:00;;;;;;;15.87;6.70;;;9.10;99.80;;;;;;5049559;28;20468;-83
2021/10/17 07:26:28;;;;;;;10.10;6.23;;;9.10;99.80;;;;;;5042549;28;20472;-84
2021/10/17 07:28:56;;;;;;;15.63;6.70;;;9.10;99.80;;;;;;5061115;28;20520;-81
2021/10/17 07:31:24;;;;;;;9.90;6.57;;;9.10;99.80;;;;;;5048658;28;20473;-82
2021/10/17 07:33:52;;;;;;;13.10;6.37;;;9.10;99.80;;;;;;5055972;28;20467;-81
2021/10/17 07:36:20;;;;;;;9.27;6.87;;;9.10;99.80;;;;;;5056928;28;20842;-83
2021/10/17 07:38:48;;;;;;;13.80;7.07;;;9.10;99.80;;;;;;5053218;28;20472;-81
2021/10/17 07:41:17;;;;;;;12.30;6.40;;;9.20;99.80;;;;;;5057005;28;20997;-81
2021/10/17 07:43:45;;;;;;;9.17;5.90;;;9.20;99.80;;;;;;5057428;28;20486;-81
2021/10/17 07:46:13;;;;;;;10.63;6.70;;;9.30;99.80;;;;;;5044354;28;20494;-81
2021/10/17 07:48:41;;;;;;;8.60;5.70;;;9.30;99.80;;;;;;5054010;28;20468;-81
2021/10/17 07:51:09;;;;;;;8.13;5.63;;;9.40;99.80;;;;;;5051949;28;20474;-80
2021/10/17 07:53:37;;;;;;;9.47;6.03;;;9.40;99.80;;;;;;5044895;28;20477;-81
2021/10/17 07:56:05;;;;;;;9.27;6.43;;;9.50;99.80;;;;;;5038061;28;20479;-81
2021/10/17 07:58:35;;;;;;;16.97;7.43;;;9.60;99.80;;;;;;5043818;28;20537;-80
2021/10/17 08:01:03;;;;;;;15.00;7.37;;;9.70;99.80;;;;;;5044065;28;20910;-81
2021/10/17 08:03:31;;;;;;;11.90;7.27;;;9.80;99.80;;;;;;5052023;28;20476;-80
2021/10/17 08:05:59;;;;;;;7.60;5.97;;;9.80;99.80;;;;;;5050714;28;20470;-81
2021/10/17 08:08:27;;;;;;;9.67;6.37;;;9.90;99.80;;;;;;5026841;28;20553;-82
2021/10/17 08:10:55;;;;;;;11.50;6.80;;;9.90;99.80;;;;;;5035789;28;21016;-81
2021/10/17 08:13:25;;;;;;;11.80;6.70;;;10.00;99.80;;;;;;5037972;28;20467;-81
2021/10/17 08:15:54;;;;;;;9.87;7.07;;;10.10;99.80;;;;;;5036383;28;20480;-81
2021/10/17 08:18:24;;;;;;;17.67;6.50;;;10.20;99.80;;;;;;5049273;28;20515;-81
2021/10/17 08:20:52;;;;;;;8.63;6.67;;;10.20;99.80;;;;;;5059568;28;20487;-81
2021/10/17 08:23:20;;;;;;;9.20;6.80;;;10.30;99.80;;;;;;5056822;28;20487;-81
2021/10/17 08:25:49;;;;;;;10.67;6.40;;;10.30;99.80;;;;;;5056176;28;20476;-81
2021/10/17 08:28:17;;;;;;;8.77;6.80;;;10.40;99.80;;;;;;5032716;28;20481;-81
2021/10/17 08:30:46;;;;;;;9.83;6.50;;;10.50;99.80;;;;;;5054512;28;20468;-81
2021/10/17 08:33:16;;;;;;;8.03;6.37;;;10.50;99.80;;;;;;5037571;28;20906;-81
2021/10/17 08:35:44;;;;;;;10.30;6.83;;;10.60;99.80;;;;;;5055346;28;20468;-81
2021/10/17 08:38:12;;;;;;;8.13;5.87;;;10.60;99.80;;;;;;5053995;28;20483;-81
2021/10/17 08:40:40;;;;;;;7.83;5.30;;;10.60;99.80;;;;;;5043084;28;20484;-82
2021/10/17 08:43:08;;;;;;;11.57;5.17;;;10.60;99.80;;;;;;5051049;28;20480;-82
2021/10/17 08:45:37;;;;;;;7.80;5.77;;;10.60;99.80;;;;;;5036628;28;20487;-82
2021/10/17 08:48:05;;;;;;;6.53;5.40;;;10.70;99.80;;;;;;5047644;28;20835;-81
2021/10/17 08:50:35;;;;;;;14.63;7.10;;;10.80;99.80;;;;;;5048203;28;20845;-81
2021/10/17 08:53:04;;;;;;;6.90;5.20;;;10.80;99.80;;;;;;5060367;28;21085;-82
2021/10/17 08:55:32;;;;;;;10.70;5.97;;;10.80;99.80;;;;;;5057840;28;20478;-86
2021/10/17 08:58:00;;;;;;;7.90;5.63;;;10.90;99.80;;;;;;5043313;28;20473;-81
2021/10/17 09:00:30;;;;;;;8.40;5.50;;;10.90;99.80;;;;;;5017664;28;21211;-82
2021/10/17 09:02:59;;;;;;;10.07;5.30;;;10.80;99.80;;;;;;5032982;28;20478;-82
2021/10/17 09:05:40;;;;;;;12.00;6.20;;;10.80;99.80;;;;;;5049392;28;20900;-82
2021/10/17 09:08:08;;;;;;;7.80;4.90;;;10.70;99.80;;;;;;5049826;28;20499;-81
2021/10/17 09:10:37;;;;;;;8.10;5.13;;;10.70;99.80;;;;;;5059587;28;20548;-81
2021/10/17 09:13:11;;;;;;;9.40;6.30;;;10.70;99.80;;;;;;5048951;28;20457;-82
2021/10/17 09:15:39;;;;;;;10.57;5.23;;;10.70;99.80;;;;;;5020321;28;20491;-81
2021/10/17 09:18:17;;;;;;;13.17;5.73;;;10.70;99.80;;;;;;5029464;28;20473;-82
2021/10/17 09:20:55;;;;;;;6.97;4.50;;;10.70;99.80;;;;;;5055179;28;20482;-81
2021/10/17 09:23:41;;;;;;;7.13;5.53;;;10.80;99.80;;;;;;5053145;28;20576;-82
2021/10/17 09:26:20;;;;;;;11.20;4.80;;;10.80;99.80;;;;;;5051781;28;20471;-81
2021/10/17 09:28:50;;;;;;;9.90;5.60;;;10.80;99.80;;;;;;5057280;28;20464;-82
2021/10/17 09:31:19;;;;;;;7.37;4.70;;;10.90;99.80;;;;;;5043461;28;20468;-82
2021/10/17 09:33:50;;;;;;;5.53;4.70;;;11.00;99.80;;;;;;5052083;28;20488;-82
2021/10/17 09:36:25;;;;;;;9.57;4.97;;;11.10;99.80;;;;;;5056427;28;20466;-82
2021/10/17 09:39:00;;;;;;;6.50;4.90;;;11.30;99.80;;;;;;5051280;28;20507;-82
2021/10/17 09:41:33;;;;;;;8.13;5.00;;;11.50;99.80;;;;;;5051577;28;20551;-81
2021/10/17 09:44:03;;;;;;;7.80;4.00;;;11.60;99.80;;;;;;5044367;28;20487;-82
2021/10/17 09:46:32;;;;;;;5.60;5.00;;;11.80;99.80;;;;;;5047990;28;20486;-82
2021/10/17 09:49:00;;;;;;;7.10;4.43;;;12.00;99.80;;;;;;5049240;28;20465;-81
2021/10/17 09:51:30;;;;;;;7.80;4.53;;;12.20;99.80;;;;;;5035931;28;20487;-82
2021/10/17 09:53:59;;;;;;;6.70;4.40;;;12.40;99.80;;;;;;5051384;28;21088;-81
2021/10/17 09:56:33;;;;;;;6.10;5.17;;;12.50;99.80;;;;;;5032763;28;20485;-81
2021/10/17 09:59:04;;;;;;;8.83;5.87;;;12.70;99.80;;;;;;5050587;28;21042;-82
2021/10/17 10:01:33;;;;;;;10.90;4.03;;;12.90;99.80;;;;;;5030452;28;21166;-82
2021/10/17 10:04:03;;;;;;;6.13;4.30;;;13.10;99.80;;;;;;5051330;28;20478;-82
2021/10/17 10:06:34;;;;;;;8.93;4.40;;;13.20;99.80;;;;;;5046825;28;20479;-82
2021/10/17 10:09:04;;;;;;;6.00;4.27;;;13.30;99.80;;;;;;5049669;28;20841;-82
2021/10/17 10:11:33;;;;;;;5.00;3.90;;;13.40;99.80;;;;;;5047231;28;20870;-82
2021/10/17 10:14:03;;;;;;;8.70;4.67;;;13.60;99.80;;;;;;5056686;28;20550;-83
2021/10/17 10:16:32;;;;;;;12.13;4.87;;;13.80;99.80;;;;;;5026814;28;20845;-82
2021/10/17 10:19:05;;;;;;;8.07;4.57;;;14.00;99.80;;;;;;5036614;28;20487;-82
2021/10/17 10:21:36;;;;;;;7.53;4.30;;;14.40;99.80;;;;;;5038460;28;20469;-82
2021/10/17 10:24:06;;;;;;;9.70;4.93;;;14.60;99.80;;;;;;5044723;28;20539;-82
2021/10/17 10:26:36;;;;;;;8.57;4.13;;;14.70;99.80;;;;;;5012175;28;21022;-82
2021/10/17 10:29:05;;;;;;;6.90;3.40;;;14.60;99.80;;;;;;5045529;28;20479;-82
2021/10/17 10:31:44;;;;;;;7.13;4.07;;;14.50;99.80;;;;;;5052933;28;20502;-83
2021/10/17 10:34:14;;;;;;;10.53;3.93;;;14.30;99.80;;;;;;5044164;28;20483;-83
2021/10/17 10:36:45;;;;;;;9.93;4.57;;;14.30;99.80;;;;;;5053088;28;20458;-83
2021/10/17 10:39:14;;;;;;;13.90;4.40;;;14.20;99.80;;;;;;5059346;28;20465;-83
2021/10/17 10:41:54;;;;;;;4.73;3.57;;;14.20;99.80;;;;;;5054665;28;20478;-82
2021/10/17 10:44:25;;;;;;;10.03;4.13;;;14.30;99.80;;;;;;5039852;28;20480;-82
2021/10/17 10:46:55;;;;;;;7.43;3.70;;;14.40;99.80;;;;;;5048237;28;20994;-82
2021/10/17 10:49:40;;;;;;;14.00;4.30;;;14.40;99.80;;;;;;5060406;28;20467;-82
2021/10/17 10:52:32;;;;;;;7.73;3.53;;;14.50;99.80;;;;;;5038697;28;20482;-83
2021/10/17 10:55:03;;;;;;;8.67;4.27;;;14.60;99.80;;;;;;5052591;28;20491;-83
2021/10/17 10:57:39;;;;;;;5.30;3.70;;;14.70;99.80;;;;;;5035947;28;21156;-83
2021/10/17 11:00:09;;;;;;;7.23;3.70;;;14.80;99.80;;;;;;5045972;28;20474;-82
2021/10/17 11:02:38;;;;;;;5.90;3.57;;;15.30;99.60;;;;;;5055446;28;21289;-83
2021/10/17 11:05:16;;;;;;;4.43;3.07;;;15.30;99.60;;;;;;5050390;28;20498;-82
2021/10/17 11:07:46;;;;;;;4.50;3.73;;;15.40;99.80;;;;;;5047990;28;21010;-82
2021/10/17 11:10:50;;;;;;;4.43;3.20;;;15.40;99.70;;;;;;5065849;28;20468;-82
2021/10/17 11:13:40;;;;;;;9.93;3.47;;;15.40;98.60;;;;;;5056348;28;20508;-83
2021/10/17 11:16:19;;;;;;;4.93;2.83;;;15.80;98.00;;;;;;5043997;28;20472;-82
2021/10/17 11:18:47;;;;;;;4.77;3.10;;;;;;;;;;5058538;28;20482;-82
2021/10/17 11:21:15;;;;;;;6.17;3.73;;;18.20;89.90;;;;;;5057401;28;20508;-82
2021/10/17 11:23:43;;;;;;;5.40;3.43;;;19.40;86.90;;;;;;5030614;28;20485;-83
2021/10/17 11:26:13;;;;;;;4.67;2.30;;;20.40;83.20;;;;;;5047127;28;20483;-83
2021/10/17 11:28:49;;;;;;;4.77;2.90;;;20.70;81.20;;;;;;5053375;28;20491;-82
2021/10/17 11:31:21;;;;;;;3.93;2.80;;;20.20;83.10;;;;;;5043755;28;20469;-83
2021/10/17 11:33:50;;;;;;;4.70;2.87;;;20.10;81.40;;;;;;5030751;28;20454;-84
2021/10/17 11:36:19;;;;;;;3.60;2.70;;;20.50;81.30;;;;;;5037728;28;20486;-83
2021/10/17 11:38:52;;;;;;;4.90;2.57;;;20.90;80.40;;;;;;5034525;28;20487;-83
2021/10/17 11:41:22;;;;;;;8.00;3.10;;;20.80;81.30;;;;;;5045309;28;20903;-83
2021/10/17 11:43:51;;;;;;;3.50;3.00;;;21.00;80.50;;;;;;5044021;28;20484;-83
2021/10/17 11:46:23;;;;;;;6.03;2.47;;;20.70;80.30;;;;;;5049135;28;20480;-83
2021/10/17 11:48:59;;;;;;;3.30;2.60;;;21.30;79.40;;;;;;5038131;28;20474;-83
2021/10/17 11:51:27;;;;;;;4.03;2.30;;;21.50;79.50;;;;;;5055878;28;20509;-82
2021/10/17 11:53:56;;;;;;;4.17;2.80;;;21.60;76.90;;;;;;5056920;28;20479;-83
2021/10/17 11:56:26;;;;;;;3.53;2.97;;;20.80;78.50;;;;;;5046351;28;20478;-83
2021/10/17 11:58:54;;;;;;;7.03;2.43;;;20.60;78.60;;;;;;5034031;28;20487;-83
2021/10/17 12:01:23;;;;;;;5.83;2.70;;;20.30;80.40;;;;;;5031599;28;20911;-83
2021/10/17 12:03:53;;;;;;;5.50;3.10;;;20.00;82.00;;;;;;5060361;28;20503;-83
2021/10/17 12:06:22;;;;;;;3.93;2.60;;;20.00;81.40;;;;;;5052556;28;20470;-84
2021/10/17 12:08:53;;;;;;;5.37;2.57;;;19.60;81.30;;;;;;5044800;28;20477;-83
2021/10/17 12:11:21;;;;;;;4.43;2.40;;;19.10;81.50;;;;;;5056958;28;20479;-83
2021/10/17 12:13:52;;;;;;;2.30;2.10;;;19.20;81.90;;;;;;5053883;28;20480;-83
2021/10/17 12:16:22;;;;;;;3.67;2.90;;;19.60;81.10;;;;;;5034534;28;20465;-83
2021/10/17 12:18:51;;;;;;;5.13;2.37;;;20.10;79.70;;;;;;5051715;28;20999;-82
2021/10/17 12:21:22;;;;;;;3.13;2.30;;;19.90;78.00;;;;;;5051265;28;20496;-82
2021/10/17 12:23:51;;;;;;;6.87;2.23;;;19.20;80.00;;;;;;5050665;28;20492;-82
2021/10/17 12:26:22;;;;;;;5.47;2.43;;;18.70;81.40;;;;;;5058157;28;20468;-82
2021/10/17 12:29:06;;;;;;;10.80;2.53;;;18.50;83.40;;;;;;5035853;28;20498;-82
2021/10/17 12:31:35;;;;;;;3.97;2.50;;;18.40;83.10;;;;;;5041556;28;20471;-82
2021/10/17 12:34:06;;;;;;;4.70;2.20;;;18.40;82.20;;;;;;5053504;28;20849;-82
2021/10/17 12:36:35;;;;;;;2.13;1.93;;;18.70;80.90;;;;;;5061341;28;20850;-82
2021/10/17 12:39:04;;;;;;;3.47;2.10;;;18.50;80.50;;;;;;5055249;28;20457;-83
2021/10/17 12:41:33;;;;;;;3.37;2.50;;;18.10;82.50;;;;;;5059159;28;20477;-83
2021/10/17 12:44:05;;;;;;;5.20;2.10;;;17.90;82.90;;;;;;5039351;28;20564;-82
2021/10/17 12:46:34;;;;;;;8.70;2.50;;;17.70;82.40;;;;;;5031532;28;20851;-82
2021/10/17 12:49:10;;;;;;;5.00;2.60;;;17.50;83.70;;;;;;5036555;28;21014;-82
2021/10/17 12:51:44;;;;;;;5.47;2.93;;;17.20;86.30;;;;;;5049754;28;20463;-82
2021/10/17 12:54:14;;;;;;;7.43;2.90;;;17.40;85.30;;;;;;5059593;28;20492;-83
2021/10/17 12:56:55;;;;;;;2.70;2.50;;;17.50;85.80;;;;;;5054859;28;20912;-83
2021/10/17 12:59:26;;;;;;;2.80;2.50;;;17.40;86.80;;;;;;5044970;28;20477;-82